sensor_id;sensor_type;location;lat;lon;timestamp;pressure;altitude;pressure_sealevel;temperature;humidity
8061;BME280;4073;42.626;25.386;2023-05-11T00:00:42;97652.19;;;9.83;100.00
8061;BME280;4073;42.626;25.386;2023-05-11T00:03:08;97651.91;;;9.79;100.00
8061;BME280;4073;42.626;25.386;2023-05-11T00:05:34;97654.88;;;9.83;100.00
8061;BME280;4073;42.626;25.386;2023-05-11T00:07:59;97650.53;;;9.77;100.00
8061;BME280;4073;42.626;25.386;2023-05-11T00:10:27;97656.91;;;9.71;100.00
8061;BME280;4073;42.626;25.386;2023-05-11T00:12:52;97640.78;;;9.61;100.00
8061;BME280;4073;42.626;25.386;2023-05-11T00:15:18;97645.84;;;9.57;100.00
8061;BME280;4073;42.626;25.386;2023-05-11T00:17:43;97657.06;;;9.59;100.00
8061;BME280;4073;42.626;25.386;2023-05-11T00:20:09;97642.06;;;9.53;100.00
8061;BME280;4073;42.626;25.386;2023-05-11T00:22:35;97656.09;;;9.44;100.00
8061;BME280;4073;42.626;25.386;2023-05-11T00:25:01;97660.59;;;9.38;100.00
8061;BME280;4073;42.626;25.386;2023-05-11T00:27:26;97660.25;;;9.30;100.00
8061;BME280;4073;42.626;25.386;2023-05-11T00:29:52;97661.06;;;9.30;100.00
8061;BME280;4073;42.626;25.386;2023-05-11T00:32:17;97663.38;;;9.22;100.00
8061;BME280;4073;42.626;25.386;2023-05-11T00:34:43;97658.81;;;9.22;100.00
8061;BME280;4073;42.626;25.386;2023-05-11T00:37:08;97659.88;;;9.21;100.00
8061;BME280;4073;42.626;25.386;2023-05-11T00:39:34;97654.31;;;9.01;100.00
8061;BME280;4073;42.626;25.386;2023-05-11T00:42:04;97670.16;;;9.08;100.00
8061;BME280;4073;42.626;25.386;2023-05-11T00:44:30;97673.31;;;9.05;100.00
8061;BME280;4073;42.626;25.386;2023-05-11T00:46:56;97673.31;;;9.05;100.00
8061;BME280;4073;42.626;25.386;2023-05-11T00:49:22;97678.31;;;9.01;100.00
8061;BME280;4073;42.626;25.386;2023-05-11T00:51:47;97681.50;;;8.98;100.00
8061;BME280;4073;42.626;25.386;2023-05-11T00:54:13;97690.88;;;9.01;100.00
8061;BME280;4073;42.626;25.386;2023-05-11T00:56:40;97675.91;;;9.00;100.00
8061;BME280;4073;42.626;25.386;2023-05-11T00:59:07;97667.38;;;8.98;100.00
8061;BME280;4073;42.626;25.386;2023-05-11T01:01:32;97679.19;;;9.07;100.00
8061;BME280;4073;42.626;25.386;2023-05-11T01:04:01;97683.53;;;9.13;100.00
8061;BME280;4073;42.626;25.386;2023-05-11T01:06:43;97692.84;;;9.10;100.00
8061;BME280;4073;42.626;25.386;2023-05-11T01:14:42;97692.97;;;9.20;100.00
8061;BME280;4073;42.626;25.386;2023-05-11T01:17:15;97692.47;;;9.23;100.00
8061;BME280;4073;42.626;25.386;2023-05-11T01:19:50;97692.25;;;9.30;100.00
8061;BME280;4073;42.626;25.386;2023-05-11T01:22:37;97693.81;;;9.26;100.00
8061;BME280;4073;42.626;25.386;2023-05-11T01:30:59;97705.19;;;9.38;100.00
8061;BME280;4073;42.626;25.386;2023-05-11T01:33:31;97699.31;;;9.41;100.00
8061;BME280;4073;42.626;25.386;2023-05-11T01:36:03;97692.13;;;9.41;100.00
8061;BME280;4073;42.626;25.386;2023-05-11T01:38:34;97696.09;;;9.39;100.00
8061;BME280;4073;42.626;25.386;2023-05-11T01:41:09;97694.50;;;9.38;100.00
8061;BME280;4073;42.626;25.386;2023-05-11T01:43:36;97685.97;;;9.41;100.00
8061;BME280;4073;42.626;25.386;2023-05-11T01:46:04;97686.84;;;9.46;100.00
8061;BME280;4073;42.626;25.386;2023-05-11T01:48:34;97693.81;;;9.52;100.00
8061;BME280;4073;42.626;25.386;2023-05-11T01:51:04;97692.97;;;9.47;100.00
8061;BME280;4073;42.626;25.386;2023-05-11T01:53:34;97681.75;;;9.45;100.00
8061;BME280;4073;42.626;25.386;2023-05-11T01:56:02;97679.34;;;9.43;100.00
8061;BME280;4073;42.626;25.386;2023-05-11T01:58:29;97686.53;;;9.43;100.00
8061;BME280;4073;42.626;25.386;2023-05-11T02:00:55;97693.97;;;9.41;100.00
8061;BME280;4073;42.626;25.386;2023-05-11T02:03:22;97687.88;;;9.45;100.00
8061;BME280;4073;42.626;25.386;2023-05-11T02:05:50;97683.63;;;9.44;100.00
8061;BME280;4073;42.626;25.386;2023-05-11T02:08:17;97684.44;;;9.45;100.00
8061;BME280;4073;42.626;25.386;2023-05-11T02:10:44;97682.31;;;9.47;100.00
8061;BME280;4073;42.626;25.386;2023-05-11T02:13:10;97684.13;;;9.41;100.00
8061;BME280;4073;42.626;25.386;2023-05-11T02:15:39;97691.16;;;9.52;100.00
8061;BME280;4073;42.626;25.386;2023-05-11T02:18:11;97696.56;;;9.57;100.00
8061;BME280;4073;42.626;25.386;2023-05-11T02:20:41;97696.31;;;9.59;100.00
8061;BME280;4073;42.626;25.386;2023-05-11T02:23:07;97688.59;;;9.62;100.00
8061;BME280;4073;42.626;25.386;2023-05-11T02:25:35;97691.00;;;9.64;100.00
8061;BME280;4073;42.626;25.386;2023-05-11T02:28:01;97687.50;;;9.58;100.00
8061;BME280;4073;42.626;25.386;2023-05-11T02:30:28;97675.09;;;9.47;100.00
8061;BME280;4073;42.626;25.386;2023-05-11T02:32:56;97687.75;;;9.57;100.00
8061;BME280;4073;42.626;25.386;2023-05-11T02:35:27;97689.91;;;9.60;100.00
8061;BME280;4073;42.626;25.386;2023-05-11T02:37:55;97690.22;;;9.63;100.00
8061;BME280;4073;42.626;25.386;2023-05-11T02:40:28;97694.00;;;9.67;100.00
8061;BME280;4073;42.626;25.386;2023-05-11T02:43:01;97694.44;;;9.59;100.00
8061;BME280;4073;42.626;25.386;2023-05-11T02:45:30;97697.63;;;9.56;100.00
8061;BME280;4073;42.626;25.386;2023-05-11T02:47:59;97690.13;;;9.53;100.00
8061;BME280;4073;42.626;25.386;2023-05-11T02:50:26;97683.13;;;9.47;100.00
8061;BME280;4073;42.626;25.386;2023-05-11T02:52:56;97688.25;;;9.54;100.00
8061;BME280;4073;42.626;25.386;2023-05-11T02:55:24;97685.53;;;9.49;100.00
8061;BME280;4073;42.626;25.386;2023-05-11T02:57:50;97682.31;;;9.47;100.00
8061;BME280;4073;42.626;25.386;2023-05-11T03:00:16;97678.88;;;9.51;100.00
8061;BME280;4073;42.626;25.386;2023-05-11T03:02:41;97678.56;;;9.48;100.00
8061;BME280;4073;42.626;25.386;2023-05-11T03:05:07;97674.59;;;9.50;100.00
8061;BME280;4073;42.626;25.386;2023-05-11T03:07:33;97686.84;;;9.46;100.00
8061;BME280;4073;42.626;25.386;2023-05-11T03:10:00;97685.97;;;9.41;100.00
8061;BME280;4073;42.626;25.386;2023-05-11T03:12:26;97692.22;;;9.51;100.00
8061;BME280;4073;42.626;25.386;2023-05-11T03:14:57;97692.53;;;9.55;100.00
8061;BME280;4073;42.626;25.386;2023-05-11T03:17:24;97699.25;;;9.62;100.00
8061;BME280;4073;42.626;25.386;2023-05-11T03:19:51;97696.59;;;9.62;100.00
8061;BME280;4073;42.626;25.386;2023-05-11T03:22:18;97695.03;;;9.66;100.00
8061;BME280;4073;42.626;25.386;2023-05-11T03:24:44;97696.91;;;9.66;100.00
8061;BME280;4073;42.626;25.386;2023-05-11T03:27:10;97703.09;;;9.71;100.00
8061;BME280;4073;42.626;25.386;2023-05-11T03:29:36;97701.94;;;9.62;100.00
8061;BME280;4073;42.626;25.386;2023-05-11T03:32:04;97699.00;;;9.64;100.00
8061;BME280;4073;42.626;25.386;2023-05-11T03:34:31;97692.56;;;9.60;100.00
8061;BME280;4073;42.626;25.386;2023-05-11T03:36:57;97702.19;;;9.61;100.00
8061;BME280;4073;42.626;25.386;2023-05-11T03:39:24;97710.44;;;9.59;100.00
8061;BME280;4073;42.626;25.386;2023-05-11T03:41:51;97704.84;;;9.61;100.00
8061;BME280;4073;42.626;25.386;2023-05-11T03:44:19;97712.88;;;9.61;100.00
8061;BME280;4073;42.626;25.386;2023-05-11T03:46:46;97710.25;;;9.66;100.00
8061;BME280;4073;42.626;25.386;2023-05-11T03:49:15;97695.50;;;9.58;100.00
8061;BME280;4073;42.626;25.386;2023-05-11T03:51:42;97702.78;;;9.68;100.00
8061;BME280;4073;42.626;25.386;2023-05-11T03:54:09;97709.53;;;9.75;100.00
8061;BME280;4073;42.626;25.386;2023-05-11T03:56:38;97717.06;;;9.78;100.00
8061;BME280;4073;42.626;25.386;2023-05-11T03:59:04;97710.34;;;9.76;100.00
8061;BME280;4073;42.626;25.386;2023-05-11T04:01:30;97713.63;;;9.83;100.00
8061;BME280;4073;42.626;25.386;2023-05-11T04:03:56;97714.41;;;9.83;100.00
8061;BME280;4073;42.626;25.386;2023-05-11T04:06:21;97720.03;;;9.82;100.00
8061;BME280;4073;42.626;25.386;2023-05-11T04:08:47;97724.81;;;9.80;100.00
8061;BME280;4073;42.626;25.386;2023-05-11T04:11:12;97728.22;;;9.75;100.00
8061;BME280;4073;42.626;25.386;2023-05-11T04:13:38;97726.63;;;9.74;100.00
8061;BME280;4073;42.626;25.386;2023-05-11T04:16:04;97724.38;;;9.66;100.00
8061;BME280;4073;42.626;25.386;2023-05-11T04:18:29;97723.59;;;9.66;100.00
8061;BME280;4073;42.626;25.386;2023-05-11T04:20:55;97714.94;;;9.54;100.00
8061;BME280;4073;42.626;25.386;2023-05-11T04:23:20;97719.34;;;9.65;100.00
8061;BME280;4073;42.626;25.386;2023-05-11T04:25:46;97730.25;;;9.63;100.00
8061;BME280;4073;42.626;25.386;2023-05-11T04:28:11;97724.84;;;9.58;100.00
8061;BME280;4073;42.626;25.386;2023-05-11T04:30:37;97725.31;;;9.50;100.00
8061;BME280;4073;42.626;25.386;2023-05-11T04:33:02;97732.25;;;9.51;100.00
8061;BME280;4073;42.626;25.386;2023-05-11T04:35:28;97734.59;;;9.48;100.00
8061;BME280;4073;42.626;25.386;2023-05-11T04:37:53;97729.84;;;9.50;100.00
8061;BME280;4073;42.626;25.386;2023-05-11T04:40:19;97740.03;;;9.53;100.00
8061;BME280;4073;42.626;25.386;2023-05-11T04:42:44;97729.91;;;9.55;100.00
8061;BME280;4073;42.626;25.386;2023-05-11T04:45:10;97730.19;;;9.58;100.00
8061;BME280;4073;42.626;25.386;2023-05-11T04:47:35;97729.78;;;9.71;100.00
8061;BME280;4073;42.626;25.386;2023-05-11T04:50:01;97730.03;;;9.70;100.00
8061;BME280;4073;42.626;25.386;2023-05-11T04:52:26;97735.72;;;9.73;100.00
8061;BME280;4073;42.626;25.386;2023-05-11T04:54:52;97743.44;;;9.75;100.00
8061;BME280;4073;42.626;25.386;2023-05-11T04:57:17;97731.47;;;9.77;100.00
8061;BME280;4073;42.626;25.386;2023-05-11T04:59:43;97735.03;;;9.88;100.00
8061;BME280;4073;42.626;25.386;2023-05-11T05:02:08;97737.25;;;9.96;100.00
8061;BME280;4073;42.626;25.386;2023-05-11T05:04:34;97729.84;;;10.03;100.00
8061;BME280;4073;42.626;25.386;2023-05-11T05:06:59;97735.56;;;10.16;100.00
8061;BME280;4073;42.626;25.386;2023-05-11T05:09:25;97733.75;;;10.22;100.00
8061;BME280;4073;42.626;25.386;2023-05-11T05:11:50;97731.88;;;10.22;100.00
8061;BME280;4073;42.626;25.386;2023-05-11T05:14:15;97734.06;;;10.25;100.00
8061;BME280;4073;42.626;25.386;2023-05-11T05:16:41;97722.00;;;10.23;100.00
8061;BME280;4073;42.626;25.386;2023-05-11T05:19:06;97737.88;;;10.34;100.00
8061;BME280;4073;42.626;25.386;2023-05-11T05:21:34;97737.91;;;10.44;100.00
8061;BME280;4073;42.626;25.386;2023-05-11T05:24:00;97748.16;;;10.52;100.00
8061;BME280;4073;42.626;25.386;2023-05-11T05:26:25;97741.28;;;10.67;100.00
8061;BME280;4073;42.626;25.386;2023-05-11T05:28:51;97745.38;;;10.79;100.00
8061;BME280;4073;42.626;25.386;2023-05-11T05:31:16;97749.69;;;10.85;100.00
8061;BME280;4073;42.626;25.386;2023-05-11T05:33:42;97740.53;;;10.76;100.00
8061;BME280;4073;42.626;25.386;2023-05-11T05:36:07;97741.97;;;10.94;100.00
8061;BME280;4073;42.626;25.386;2023-05-11T05:38:51;97736.38;;;11.00;100.00
8061;BME280;4073;42.626;25.386;2023-05-11T05:41:17;97741.22;;;10.98;100.00
8061;BME280;4073;42.626;25.386;2023-05-11T05:43:43;97756.97;;;10.95;100.00
8061;BME280;4073;42.626;25.386;2023-05-11T05:46:08;97751.66;;;11.00;100.00
8061;BME280;4073;42.626;25.386;2023-05-11T05:48:33;97747.94;;;11.11;100.00
8061;BME280;4073;42.626;25.386;2023-05-11T05:50:59;97753.88;;;11.18;100.00
8061;BME280;4073;42.626;25.386;2023-05-11T05:53:25;97760.34;;;11.27;100.00
8061;BME280;4073;42.626;25.386;2023-05-11T05:55:50;97761.72;;;11.39;100.00
8061;BME280;4073;42.626;25.386;2023-05-11T05:58:16;97761.75;;;11.49;100.00
8061;BME280;4073;42.626;25.386;2023-05-11T06:00:41;97758.81;;;11.51;100.00
8061;BME280;4073;42.626;25.386;2023-05-11T06:03:07;97765.47;;;11.48;100.00
8061;BME280;4073;42.626;25.386;2023-05-11T06:05:32;97766.31;;;11.49;100.00
8061;BME280;4073;42.626;25.386;2023-05-11T06:07:58;97769.50;;;11.46;100.00
8061;BME280;4073;42.626;25.386;2023-05-11T06:10:23;97767.59;;;11.41;100.00
8061;BME280;4073;42.626;25.386;2023-05-11T06:12:48;97766.34;;;11.59;100.00
8061;BME280;4073;42.626;25.386;2023-05-11T06:15:14;97776.13;;;11.95;100.00
8061;BME280;4073;42.626;25.386;2023-05-11T06:17:39;97778.03;;;12.34;100.00
8061;BME280;4073;42.626;25.386;2023-05-11T06:20:06;97780.41;;;12.71;97.66
8061;BME280;4073;42.626;25.386;2023-05-11T06:22:34;97783.09;;;12.61;96.45
8061;BME280;4073;42.626;25.386;2023-05-11T06:24:59;97774.53;;;12.69;98.05
8061;BME280;4073;42.626;25.386;2023-05-11T06:27:25;97784.94;;;13.00;94.01
8061;BME280;4073;42.626;25.386;2023-05-11T06:29:50;97785.69;;;13.31;92.57
8061;BME280;4073;42.626;25.386;2023-05-11T06:32:16;97779.00;;;13.29;92.98
8061;BME280;4073;42.626;25.386;2023-05-11T06:34:41;97780.88;;;13.13;91.63
8061;BME280;4073;42.626;25.386;2023-05-11T06:37:06;97785.75;;;12.91;91.30
8061;BME280;4073;42.626;25.386;2023-05-11T06:39:35;97771.81;;;12.79;92.95
8061;BME280;4073;42.626;25.386;2023-05-11T06:42:04;97786.88;;;12.60;93.49
8061;BME280;4073;42.626;25.386;2023-05-11T06:44:29;97778.53;;;12.26;97.03
8061;BME280;4073;42.626;25.386;2023-05-11T06:46:55;97782.56;;;12.34;97.83
8061;BME280;4073;42.626;25.386;2023-05-11T06:49:20;97782.56;;;12.44;98.08
8061;BME280;4073;42.626;25.386;2023-05-11T06:51:46;97770.25;;;12.53;96.92
8061;BME280;4073;42.626;25.386;2023-05-11T06:54:11;97774.25;;;12.65;98.62
8061;BME280;4073;42.626;25.386;2023-05-11T06:56:36;97771.56;;;12.55;96.88
8061;BME280;4073;42.626;25.386;2023-05-11T06:59:02;97784.44;;;12.78;96.90
8061;BME280;4073;42.626;25.386;2023-05-11T07:01:27;97769.34;;;13.18;95.24
8061;BME280;4073;42.626;25.386;2023-05-11T07:03:53;97780.19;;;13.56;92.55
8061;BME280;4073;42.626;25.386;2023-05-11T07:06:19;97775.78;;;13.85;89.62
8061;BME280;4073;42.626;25.386;2023-05-11T07:08:45;97776.34;;;13.77;89.16
8061;BME280;4073;42.626;25.386;2023-05-11T07:11:10;97780.28;;;13.95;88.51
8061;BME280;4073;42.626;25.386;2023-05-11T07:13:37;97787.22;;;14.01;90.07
8061;BME280;4073;42.626;25.386;2023-05-11T07:16:02;97775.50;;;14.30;86.86
8061;BME280;4073;42.626;25.386;2023-05-11T07:18:28;97784.16;;;14.56;83.97
8061;BME280;4073;42.626;25.386;2023-05-11T07:20:53;97777.19;;;14.55;84.99
8061;BME280;4073;42.626;25.386;2023-05-11T07:23:19;97775.53;;;14.87;81.17
8061;BME280;4073;42.626;25.386;2023-05-11T07:25:44;97771.94;;;14.97;81.79
8061;BME280;4073;42.626;25.386;2023-05-11T07:28:10;97771.78;;;15.12;81.81
8061;BME280;4073;42.626;25.386;2023-05-11T07:30:35;97760.78;;;15.32;78.47
8061;BME280;4073;42.626;25.386;2023-05-11T07:33:01;97764.06;;;15.29;77.74
8061;BME280;4073;42.626;25.386;2023-05-11T07:35:27;97764.81;;;15.34;76.94
8061;BME280;4073;42.626;25.386;2023-05-11T07:37:53;97777.56;;;15.00;77.89
8061;BME280;4073;42.626;25.386;2023-05-11T07:40:18;97777.56;;;15.00;78.21
8061;BME280;4073;42.626;25.386;2023-05-11T07:42:43;97774.84;;;15.29;77.36
8061;BME280;4073;42.626;25.386;2023-05-11T07:45:09;97780.75;;;15.55;77.95
8061;BME280;4073;42.626;25.386;2023-05-11T07:47:35;97770.88;;;15.69;74.92
8061;BME280;4073;42.626;25.386;2023-05-11T07:50:00;97767.31;;;15.92;75.23
8061;BME280;4073;42.626;25.386;2023-05-11T07:52:25;97766.22;;;15.74;74.95
8061;BME280;4073;42.626;25.386;2023-05-11T07:54:51;97769.69;;;15.56;76.23
8061;BME280;4073;42.626;25.386;2023-05-11T07:57:17;97778.16;;;15.87;74.22
8061;BME280;4073;42.626;25.386;2023-05-11T07:59:43;97778.63;;;15.94;70.55
8061;BME280;4073;42.626;25.386;2023-05-11T08:02:08;97775.78;;;16.04;71.63
8061;BME280;4073;42.626;25.386;2023-05-11T08:04:34;97772.25;;;15.85;74.39
8061;BME280;4073;42.626;25.386;2023-05-11T08:07:00;97770.66;;;16.02;72.97
8061;BME280;4073;42.626;25.386;2023-05-11T08:09:26;97777.78;;;15.75;73.11
8061;BME280;4073;42.626;25.386;2023-05-11T08:11:53;97775.00;;;15.61;72.75
8061;BME280;4073;42.626;25.386;2023-05-11T08:14:20;97766.06;;;15.66;74.32
8061;BME280;4073;42.626;25.386;2023-05-11T08:16:46;97765.56;;;15.82;73.20
8061;BME280;4073;42.626;25.386;2023-05-11T08:19:12;97767.00;;;15.75;74.29
8061;BME280;4073;42.626;25.386;2023-05-11T08:21:37;97769.25;;;15.68;75.45
8061;BME280;4073;42.626;25.386;2023-05-11T08:24:03;97761.31;;;15.76;75.10
8061;BME280;4073;42.626;25.386;2023-05-11T08:26:30;97770.38;;;16.22;71.88
8061;BME280;4073;42.626;25.386;2023-05-11T08:28:57;97774.31;;;16.30;69.68
8061;BME280;4073;42.626;25.386;2023-05-11T08:31:22;97769.94;;;16.52;68.00
8061;BME280;4073;42.626;25.386;2023-05-11T08:33:48;97769.06;;;17.16;66.94
8061;BME280;4073;42.626;25.386;2023-05-11T08:36:13;97783.09;;;17.31;64.74
8061;BME280;4073;42.626;25.386;2023-05-11T08:38:39;97772.03;;;17.46;63.90
8061;BME280;4073;42.626;25.386;2023-05-11T08:41:05;97773.47;;;17.39;62.26
8061;BME280;4073;42.626;25.386;2023-05-11T08:43:33;97765.59;;;17.56;62.59
8061;BME280;4073;42.626;25.386;2023-05-11T08:46:02;97758.66;;;17.77;61.94
8061;BME280;4073;42.626;25.386;2023-05-11T08:48:28;97773.63;;;18.32;59.57
8061;BME280;4073;42.626;25.386;2023-05-11T08:50:55;97761.31;;;18.40;56.65
8061;BME280;4073;42.626;25.386;2023-05-11T08:53:21;97766.84;;;18.35;57.54
8061;BME280;4073;42.626;25.386;2023-05-11T08:55:47;97761.38;;;18.13;58.86
8061;BME280;4073;42.626;25.386;2023-05-11T08:58:14;97761.97;;;17.74;58.06
8061;BME280;4073;42.626;25.386;2023-05-11T09:00:44;97766.75;;;17.23;60.27
8061;BME280;4073;42.626;25.386;2023-05-11T09:03:10;97764.03;;;16.82;62.68
8061;BME280;4073;42.626;25.386;2023-05-11T09:05:36;97753.66;;;16.20;65.03
8061;BME280;4073;42.626;25.386;2023-05-11T09:08:03;97755.63;;;16.33;64.99
8061;BME280;4073;42.626;25.386;2023-05-11T09:10:30;97756.78;;;16.46;64.67
8061;BME280;4073;42.626;25.386;2023-05-11T09:12:56;97742.22;;;16.47;65.57
8061;BME280;4073;42.626;25.386;2023-05-11T09:15:22;97744.34;;;16.50;65.48
8061;BME280;4073;42.626;25.386;2023-05-11T09:17:47;97748.75;;;16.59;65.96
8061;BME280;4073;42.626;25.386;2023-05-11T09:20:13;97747.88;;;16.77;63.74
8061;BME280;4073;42.626;25.386;2023-05-11T09:22:44;97739.63;;;16.87;64.27
8061;BME280;4073;42.626;25.386;2023-05-11T09:25:11;97744.56;;;17.12;61.93
8061;BME280;4073;42.626;25.386;2023-05-11T09:27:45;97740.53;;;17.37;60.78
8061;BME280;4073;42.626;25.386;2023-05-11T09:30:12;97730.22;;;17.25;61.45
8061;BME280;4073;42.626;25.386;2023-05-11T09:38:09;97726.72;;;17.11;60.17
8061;BME280;4073;42.626;25.386;2023-05-11T09:43:01;97726.22;;;16.82;60.97
8061;BME280;4073;42.626;25.386;2023-05-11T09:45:54;97717.88;;;16.65;62.56
8061;BME280;4073;42.626;25.386;2023-05-11T09:50:50;97714.94;;;17.07;61.67
8061;BME280;4073;42.626;25.386;2023-05-11T09:53:16;97723.06;;;17.83;56.25
8061;BME280;4073;42.626;25.386;2023-05-11T09:55:53;97711.03;;;17.89;54.32
8061;BME280;4073;42.626;25.386;2023-05-11T09:58:19;97715.13;;;17.51;55.27
8061;BME280;4073;42.626;25.386;2023-05-11T10:00:51;97720.53;;;17.24;57.76
8061;BME280;4073;42.626;25.386;2023-05-11T10:03:18;97698.88;;;16.70;59.97
8061;BME280;4073;42.626;25.386;2023-05-11T10:05:59;97714.28;;;16.70;61.10
8061;BME280;4073;42.626;25.386;2023-05-11T10:08:28;97709.91;;;16.87;60.17
8061;BME280;4073;42.626;25.386;2023-05-11T10:10:55;97701.81;;;16.74;59.66
8061;BME280;4073;42.626;25.386;2023-05-11T10:13:21;97690.69;;;16.75;60.04
8061;BME280;4073;42.626;25.386;2023-05-11T10:15:51;97698.53;;;17.04;59.39
8061;BME280;4073;42.626;25.386;2023-05-11T10:18:17;97696.94;;;17.43;57.08
8061;BME280;4073;42.626;25.386;2023-05-11T10:20:43;97698.91;;;17.65;55.68
8061;BME280;4073;42.626;25.386;2023-05-11T10:23:10;97694.41;;;17.33;55.81
8061;BME280;4073;42.626;25.386;2023-05-11T10:25:36;97701.63;;;17.24;56.59
8061;BME280;4073;42.626;25.386;2023-05-11T10:28:02;97698.19;;;17.05;57.46
8061;BME280;4073;42.626;25.386;2023-05-11T10:30:29;97688.91;;;17.11;56.83
8061;BME280;4073;42.626;25.386;2023-05-11T10:32:55;97691.50;;;17.30;56.96
8061;BME280;4073;42.626;25.386;2023-05-11T10:35:22;97681.28;;;17.54;56.83
8061;BME280;4073;42.626;25.386;2023-05-11T10:37:48;97703.53;;;17.86;55.96
8061;BME280;4073;42.626;25.386;2023-05-11T10:40:15;97689.47;;;17.62;53.07
8061;BME280;4073;42.626;25.386;2023-05-11T10:56:51;97673.88;;;19.48;46.91
8061;BME280;4073;42.626;25.386;2023-05-11T10:59:40;97670.69;;;18.98;48.13
8061;BME280;4073;42.626;25.386;2023-05-11T11:02:09;97679.44;;;18.65;48.71
8061;BME280;4073;42.626;25.386;2023-05-11T11:04:47;97685.53;;;17.82;49.90
8061;BME280;4073;42.626;25.386;2023-05-11T11:07:14;97679.63;;;17.80;51.56
8061;BME280;4073;42.626;25.386;2023-05-11T11:12:23;97667.09;;;19.20;47.53
8061;BME280;4073;42.626;25.386;2023-05-11T11:15:02;97655.06;;;19.68;46.48
8061;BME280;4073;42.626;25.386;2023-05-11T11:17:33;97668.44;;;19.31;46.99
8061;BME280;4073;42.626;25.386;2023-05-11T11:20:00;97656.31;;;18.89;48.46
8061;BME280;4073;42.626;25.386;2023-05-11T11:25:01;97660.31;;;18.61;48.61
8061;BME280;4073;42.626;25.386;2023-05-11T11:30:17;97658.72;;;18.60;49.41
8061;BME280;4073;42.626;25.386;2023-05-11T11:32:43;97655.44;;;18.41;51.14
8061;BME280;4073;42.626;25.386;2023-05-11T11:38:07;97645.59;;;18.23;49.78
8061;BME280;4073;42.626;25.386;2023-05-11T11:45:59;97634.53;;;19.03;49.27
8061;BME280;4073;42.626;25.386;2023-05-11T11:48:38;97618.13;;;19.16;48.18
8061;BME280;4073;42.626;25.386;2023-05-11T11:51:06;97622.28;;;19.22;49.00
8061;BME280;4073;42.626;25.386;2023-05-11T12:01:25;97620.34;;;18.67;53.66
8061;BME280;4073;42.626;25.386;2023-05-11T12:06:39;97622.81;;;18.85;51.58
8061;BME280;4073;42.626;25.386;2023-05-11T12:09:06;97611.25;;;18.63;52.25
8061;BME280;4073;42.626;25.386;2023-05-11T12:11:32;97632.53;;;18.47;51.95
8061;BME280;4073;42.626;25.386;2023-05-11T12:13:58;97617.41;;;18.24;53.78
8061;BME280;4073;42.626;25.386;2023-05-11T12:16:24;97616.03;;;18.35;53.19
8061;BME280;4073;42.626;25.386;2023-05-11T12:18:59;97603.25;;;18.58;51.26
8061;BME280;4073;42.626;25.386;2023-05-11T12:21:27;97603.06;;;18.24;51.04
8061;BME280;4073;42.626;25.386;2023-05-11T12:23:54;97603.16;;;18.10;52.46
8061;BME280;4073;42.626;25.386;2023-05-11T12:26:21;97620.63;;;18.04;52.34
8061;BME280;4073;42.626;25.386;2023-05-11T12:28:48;97604.75;;;18.11;51.85
8061;BME280;4073;42.626;25.386;2023-05-11T12:31:19;97600.25;;;18.07;51.42
8061;BME280;4073;42.626;25.386;2023-05-11T12:33:49;97604.53;;;17.99;51.46
8061;BME280;4073;42.626;25.386;2023-05-11T12:36:16;97581.41;;;18.24;51.32
8061;BME280;4073;42.626;25.386;2023-05-11T12:38:46;97593.47;;;18.40;50.26
8061;BME280;4073;42.626;25.386;2023-05-11T12:41:22;97577.00;;;18.58;51.62
8061;BME280;4073;42.626;25.386;2023-05-11T12:43:49;97595.06;;;18.41;50.09
8061;BME280;4073;42.626;25.386;2023-05-11T12:46:16;97576.31;;;18.22;51.14
8061;BME280;4073;42.626;25.386;2023-05-11T12:48:41;97560.69;;;18.41;50.77
8061;BME280;4073;42.626;25.386;2023-05-11T12:51:07;97577.31;;;18.57;50.79
8061;BME280;4073;42.626;25.386;2023-05-11T12:53:34;97567.03;;;18.76;49.10
8061;BME280;4073;42.626;25.386;2023-05-11T12:56:03;97564.03;;;18.86;48.40
8061;BME280;4073;42.626;25.386;2023-05-11T12:58:35;97562.88;;;18.70;50.00
8061;BME280;4073;42.626;25.386;2023-05-11T13:01:05;97565.31;;;18.49;49.05
8061;BME280;4073;42.626;25.386;2023-05-11T13:03:33;97559.56;;;18.12;50.73
8061;BME280;4073;42.626;25.386;2023-05-11T13:06:12;97570.44;;;17.98;51.87
8061;BME280;4073;42.626;25.386;2023-05-11T13:08:44;97571.72;;;18.00;50.84
8061;BME280;4073;42.626;25.386;2023-05-11T13:11:21;97551.69;;;18.02;50.04
8061;BME280;4073;42.626;25.386;2023-05-11T13:13:48;97568.13;;;18.14;49.93
8061;BME280;4073;42.626;25.386;2023-05-11T13:16:32;97548.28;;;18.18;50.53
8061;BME280;4073;42.626;25.386;2023-05-11T13:19:02;97553.00;;;18.35;48.67
8061;BME280;4073;42.626;25.386;2023-05-11T13:21:29;97558.47;;;18.43;48.25
8061;BME280;4073;42.626;25.386;2023-05-11T13:23:55;97559.28;;;18.22;48.58
8061;BME280;4073;42.626;25.386;2023-05-11T13:26:24;97524.53;;;17.84;48.93
8061;BME280;4073;42.626;25.386;2023-05-11T13:28:51;97552.63;;;17.75;48.57
8061;BME280;4073;42.626;25.386;2023-05-11T13:31:16;97555.41;;;17.61;49.44
8061;BME280;4073;42.626;25.386;2023-05-11T13:33:44;97556.22;;;17.62;50.79
8061;BME280;4073;42.626;25.386;2023-05-11T13:36:10;97556.56;;;17.47;49.39
8061;BME280;4073;42.626;25.386;2023-05-11T13:38:36;97559.16;;;17.38;49.81
8061;BME280;4073;42.626;25.386;2023-05-11T13:41:01;97550.81;;;17.13;50.79
8061;BME280;4073;42.626;25.386;2023-05-11T13:43:27;97548.84;;;17.05;52.31
8061;BME280;4073;42.626;25.386;2023-05-11T13:45:53;97550.66;;;17.09;52.18
8061;BME280;4073;42.626;25.386;2023-05-11T13:48:19;97544.56;;;17.04;51.57
8061;BME280;4073;42.626;25.386;2023-05-11T13:50:44;97548.25;;;16.94;52.52
8061;BME280;4073;42.626;25.386;2023-05-11T13:53:10;97574.56;;;16.89;52.68
8061;BME280;4073;42.626;25.386;2023-05-11T13:55:35;97550.31;;;16.75;52.46
8061;BME280;4073;42.626;25.386;2023-05-11T13:58:03;97541.59;;;16.65;52.97
8061;BME280;4073;42.626;25.386;2023-05-11T14:00:28;97563.91;;;16.70;53.08
8061;BME280;4073;42.626;25.386;2023-05-11T14:02:54;97563.22;;;16.51;53.71
8061;BME280;4073;42.626;25.386;2023-05-11T14:05:22;97552.09;;;16.53;54.19
8061;BME280;4073;42.626;25.386;2023-05-11T14:07:47;97553.66;;;16.40;54.48
8061;BME280;4073;42.626;25.386;2023-05-11T14:10:13;97550.44;;;16.25;54.74
8061;BME280;4073;42.626;25.386;2023-05-11T14:12:40;97543.28;;;16.34;55.44